AirNav   TITAN Aviation Fuels
 
 472 users online  

LA06 Behavioral Health Center Heliport
Arnaudville, Louisiana, USA

GOING TO ARNAUDVILLE?


FAA INFORMATION EFFECTIVE 08 SEPTEMBER 2022

Location

FAA Identifier: LA06
Lat/Long: 30-24-06.7100N 091-56-06.4220W
30-24.111833N 091-56.107033W
30.4018639,-91.9351172
(estimated)
Elevation: 25 ft. / 8 m (estimated)
Variation: 04E (1985)
From city: 1 mile NW of ARNAUDVILLE, LA
Time zone: UTC -5 (UTC -6 during Standard Time)
Zip code: 70512

Heliport Operations

Heliport use: Private use, MEDICAL
Activation date: 08/1988
Control tower: no
ARTCC: HOUSTON CENTER
FSS: DE RIDDER FLIGHT SERVICE STATION
Attendance: CONTINUOUS
Wind indicator: lighted
Segmented circle: no
Lights: FOR PERIMETER LGTS CALL 318-754-5112.

Heliport Communications

WX ASOS at LFT (12 nm S): 134.05 ((337)262-2757)
WX AWOS-3PT at OPL (13 nm NW): 118.775 (337-948-8560)

Nearby radio navigation aids

VOR radial/distance  VOR name  Freq  Var
LFTr010/12.8LAFAYETTE VORTAC109.8003E
LSUr255/33.5FIGHTING TIGER VORTAC116.5006E

 
NDB name  Hdg/Dist  Freq  Var  ID
LAFFS345/6.937503ELF .-.. ..-.
ABBEVILLE024/22.723002EBNZ -... -. --..
DURALDE108/28.226302EECY . -.-. -.--

Heliport Services

Runway Information

Helipad H1

Dimensions: 40 x 40 ft. / 12 x 12 m
Surface: concrete
Runway edge lights: PERI
Latitude: 30-24.111833N
Longitude: 091-56.107033W
Elevation: 25.0 ft.
Traffic pattern: leftleft

Heliport Ownership and Management from official FAA records

Ownership: Publicly-owned
Owner: DOCTORS HOSPITAL OF OPELOUSAS
PO BOX 607
ARNAUDVILLE, LA 70512
Phone 337-754-5557
EXTENSION 22
Manager: TAMMY BURKE
PO BOX 607
ARNAUDVILLE, LA 70512
Phone 337-754-5557

Additional Remarks

A52-H1 21' PLINES 210' EAST OF PAD.
FOR CD CTC LAFAYETTE APCH AT 337-262-2729, WHEN APCH CLSD CTC HOUSTON ARTCC AT 281-230-5622.

Instrument Procedures

There are no published instrument procedures at LA06.

Some nearby airports with instrument procedures:

KLFT - Lafayette Regional Airport/Paul Fournet Field (12 nm S)
KOPL - St Landry Parish Airport-Ahart Field (13 nm NW)
KARA - Acadiana Regional Airport (22 nm S)
4R7 - Eunice Airport (26 nm W)
KIYA - Abbeville Chris Crusta Memorial Airport (27 nm S)
 
Loc | Ops | Rwys | IFR | FBO | Links
Com | Nav | Svcs | Stats | Notes
Area around LA06 (Behavioral Health Center Heliport)
 
Road maps at: MapQuest Bing Google
 
Aerial photo
No photo
 
Sectional chart

 
Airport distance calculator
Flying to Behavioral Health Center Heliport? Find the distance to fly.

From to LA06

Sunrise and sunset
Times for 02-Oct-2022
 Local
(UTC-5)
 Zulu
(UTC)
Morning civil twilight06:3911:39
Sunrise07:0312:03
Sunset18:5123:51
Evening civil twilight19:1500:15

Current date and time
Zulu (UTC)  02-Oct-2022 10:54:08
Local (UTC-5)  02-Oct-2022 05:54:08
 
METAR
KLFT 
13nm S 
020953Z AUTO 00000KT 10SM CLR 13/11 A3005 RMK AO2 SLP176 T01280106
KOPL 
13nm NW 
021035Z AUTO 00000KT 10SM CLR 09/09 A3007 RMK AO2 T00870087
KARA 
22nm S 
020953Z AUTO 34003KT 10SM CLR 12/09 A3005 RMK AO2 SLP174 T01220094 $
TAF
KLFT 
13nm S 
020520Z 0206/0306 VRB04KT P6SM SKC FM021500 01007KT P6SM SKC FM030100 VRB03KT P6SM SKC
NOTAMs
Click for the latest NOTAMs
NOTAMs are issued by the DoD/FAA and will open in a separate window not controlled by AirNav.

 

 
 

Would you like to see your business listed on this page?

 If your business provides an interesting product or service to pilots, flight crews, aircraft, or users of the Behavioral Health Center Heliport, you should consider listing it here.  To start the listing process, click on the button below
 
Add a business
 

Other Pages about Behavioral Health Center Heliport

Update a link
 
Copyright © AirNav, LLC. All rights reserved. Privacy Policy  Contact